createdAt,value
2018-12-16T00:01:45.772Z,70.47
2018-12-16T00:04:13.801Z,37.95
2018-12-16T00:06:41.843Z,66.53
2018-12-16T00:09:10.050Z,30.65
2018-12-16T00:11:38.341Z,35.78
2018-12-16T00:14:06.614Z,35.15
2018-12-16T00:16:34.681Z,31.37
2018-12-16T00:19:02.711Z,34.43
2018-12-16T00:21:31.185Z,33.15
2018-12-16T00:23:59.194Z,32.25
2018-12-16T00:26:31.968Z,36.42
2018-12-16T00:28:59.992Z,34.85
2018-12-16T00:31:28.011Z,36.85
2018-12-16T00:33:56.027Z,37.05
2018-12-16T00:36:24.054Z,38.23
2018-12-16T00:38:52.073Z,37.48
2018-12-16T00:41:20.107Z,36.10
2018-12-16T00:43:48.154Z,36.05
2018-12-16T00:46:16.931Z,39.63
2018-12-16T00:48:44.955Z,36.77
2018-12-16T00:51:13.018Z,38.05
2018-12-16T00:53:41.029Z,42.98
2018-12-16T00:56:09.057Z,42.48
2018-12-16T00:58:37.067Z,40.10
2018-12-16T01:01:05.078Z,39.42
2018-12-16T01:03:33.097Z,41.92
2018-12-16T01:06:01.121Z,43.98
2018-12-16T01:08:29.168Z,43.68
2018-12-16T01:10:57.189Z,44.70
2018-12-16T01:13:25.212Z,43.17
2018-12-16T01:15:53.226Z,42.58
2018-12-16T01:18:21.276Z,42.50
2018-12-16T01:20:49.271Z,45.25
2018-12-16T01:23:17.313Z,41.92
2018-12-16T01:25:45.319Z,46.28
2018-12-16T01:28:13.343Z,48.17
2018-12-16T01:30:41.345Z,49.18
2018-12-16T01:33:09.369Z,46.68
2018-12-16T01:35:39.203Z,48.28
2018-12-16T01:38:07.226Z,46.48
2018-12-16T01:40:35.297Z,49.77
2018-12-16T01:43:03.305Z,48.08
2018-12-16T01:45:31.727Z,47.93
2018-12-16T01:47:59.729Z,46.20
2018-12-16T01:50:27.761Z,45.30
2018-12-16T01:52:55.779Z,47.95
2018-12-16T01:55:23.809Z,50.80
2018-12-16T01:57:51.815Z,48.17
2018-12-16T02:00:19.928Z,51.50
2018-12-16T02:02:47.950Z,46.30
2018-12-16T02:05:15.971Z,55.70
2018-12-16T02:07:44.003Z,53.92
2018-12-16T02:10:12.161Z,49.42
2018-12-16T02:12:40.180Z,51.88
2018-12-16T02:15:08.307Z,52.78
2018-12-16T02:17:36.319Z,53.15
2018-12-16T02:20:04.906Z,51.88
2018-12-16T02:22:32.985Z,54.60
2018-12-16T02:25:01.119Z,52.23
2018-12-16T02:27:29.156Z,54.42
2018-12-16T02:29:57.171Z,48.52
2018-12-16T02:32:25.224Z,53.25
2018-12-16T02:34:53.231Z,53.80
2018-12-16T02:37:21.239Z,55.45
2018-12-16T02:39:49.281Z,49.83
2018-12-16T02:42:17.307Z,53.55
2018-12-16T02:44:45.442Z,52.80
2018-12-16T02:47:13.476Z,48.45
2018-12-16T02:49:41.505Z,52.73
2018-12-16T02:52:09.522Z,48.78
2018-12-16T02:54:37.587Z,47.23
2018-12-16T02:57:05.604Z,50.38
2018-12-16T02:59:33.624Z,49.13
2018-12-16T03:02:01.665Z,50.43
2018-12-16T03:04:29.712Z,48.05
2018-12-16T03:06:57.733Z,48.65
2018-12-16T03:09:25.949Z,45.00
2018-12-16T03:11:53.964Z,46.48
2018-12-16T03:14:22.016Z,48.60
2018-12-16T03:16:50.057Z,45.17
2018-12-16T03:19:18.089Z,46.88
2018-12-16T03:21:46.106Z,44.90
2018-12-16T03:24:14.110Z,44.77
2018-12-16T03:26:42.125Z,45.55
2018-12-16T03:29:10.150Z,43.95
2018-12-16T03:31:38.211Z,45.30
2018-12-16T03:34:06.213Z,42.45
2018-12-16T03:36:34.537Z,46.50
2018-12-16T03:39:02.561Z,42.58
2018-12-16T03:41:30.593Z,39.27
2018-12-16T03:43:58.612Z,43.83
2018-12-16T03:46:26.647Z,43.90
2018-12-16T03:48:54.665Z,43.02
2018-12-16T03:51:22.673Z,40.73
2018-12-16T03:53:50.969Z,41.80
2018-12-16T03:56:18.963Z,44.63
2018-12-16T03:59:20.157Z,47.13
2018-12-16T04:01:53.623Z,43.75
2018-12-16T04:04:21.965Z,46.70
2018-12-16T04:06:50.000Z,42.80
2018-12-16T04:09:18.022Z,47.45
2018-12-16T04:11:46.053Z,41.65
2018-12-16T04:14:14.090Z,40.65
2018-12-16T04:16:42.420Z,42.85
2018-12-16T04:19:10.456Z,45.40
2018-12-16T04:21:38.477Z,42.78
2018-12-16T04:24:06.502Z,41.95
2018-12-16T04:26:34.523Z,41.50
2018-12-16T04:29:02.670Z,43.95
2018-12-16T04:31:30.794Z,41.40
2018-12-16T04:33:58.897Z,41.37
2018-12-16T04:36:26.911Z,41.48
2018-12-16T04:38:54.943Z,43.73
2018-12-16T04:41:22.961Z,44.13
2018-12-16T04:43:51.023Z,47.98
2018-12-16T04:46:19.035Z,43.58
2018-12-16T04:48:47.071Z,44.45
2018-12-16T04:51:15.120Z,42.10
2018-12-16T04:53:43.172Z,46.88
2018-12-16T04:56:11.263Z,42.93
2018-12-16T04:58:39.273Z,44.83
2018-12-16T05:01:07.290Z,44.42
2018-12-16T05:03:35.681Z,49.48
2018-12-16T05:06:04.255Z,43.20
2018-12-16T05:08:32.276Z,45.85
2018-12-16T05:11:00.415Z,44.27
2018-12-16T05:13:28.479Z,42.15
2018-12-16T05:15:56.610Z,42.67
2018-12-16T05:18:24.710Z,45.63
2018-12-16T05:20:52.834Z,46.33
2018-12-16T05:23:20.868Z,43.05
2018-12-16T05:25:48.876Z,43.87
2018-12-16T05:28:16.907Z,41.55
2018-12-16T05:30:45.305Z,46.58
2018-12-16T05:33:13.324Z,46.65
2018-12-16T05:35:41.366Z,45.23
2018-12-16T05:38:09.383Z,45.90
2018-12-16T05:40:37.405Z,43.87
2018-12-16T05:43:05.438Z,46.23
2018-12-16T05:45:33.470Z,55.70
2018-12-16T05:48:01.518Z,47.60
2018-12-16T05:50:29.533Z,49.60
2018-12-16T05:52:57.572Z,48.00
2018-12-16T05:55:25.631Z,47.43
2018-12-16T05:57:53.676Z,46.42
2018-12-16T06:00:21.725Z,46.33
2018-12-16T06:02:49.749Z,48.52
2018-12-16T06:05:17.792Z,48.05
2018-12-16T06:07:45.849Z,48.45
2018-12-16T06:10:16.211Z,50.08
2018-12-16T06:12:44.274Z,50.40
2018-12-16T06:15:12.295Z,48.83
2018-12-16T06:17:40.333Z,50.55
2018-12-16T06:20:08.377Z,46.13
2018-12-16T06:22:36.417Z,52.05
2018-12-16T06:25:04.610Z,51.13
2018-12-16T06:27:32.617Z,53.40
2018-12-16T06:30:00.765Z,49.42
2018-12-16T06:32:28.784Z,51.42
2018-12-16T06:34:56.835Z,54.60
2018-12-16T06:37:24.863Z,55.15
2018-12-16T06:39:52.881Z,125.27
2018-12-16T06:42:20.915Z,129.53
2018-12-16T06:44:48.951Z,79.07
2018-12-16T06:47:17.007Z,52.03
2018-12-16T06:49:45.059Z,52.20
2018-12-16T06:52:13.099Z,53.33
2018-12-16T06:54:41.145Z,54.63
2018-12-16T06:57:09.213Z,49.70
2018-12-16T06:59:37.272Z,54.75
2018-12-16T07:02:05.301Z,55.85
2018-12-16T07:04:33.345Z,56.23
2018-12-16T07:07:01.380Z,51.18
2018-12-16T07:09:29.423Z,50.12
2018-12-16T07:11:57.493Z,54.50
2018-12-16T07:14:25.622Z,53.30
2018-12-16T07:16:53.668Z,53.30
2018-12-16T07:19:21.812Z,51.75
2018-12-16T07:21:49.841Z,61.60
2018-12-16T07:24:18.175Z,52.33
2018-12-16T07:26:46.493Z,55.48
2018-12-16T07:29:14.627Z,57.20
2018-12-16T07:31:42.779Z,50.35
2018-12-16T07:34:10.869Z,53.65
2018-12-16T07:36:39.087Z,54.53
2018-12-16T07:39:07.468Z,55.40
2018-12-16T07:41:35.611Z,57.62
2018-12-16T07:44:03.806Z,61.53
2018-12-16T07:46:31.907Z,55.67
2018-12-16T07:48:59.957Z,53.35
2018-12-16T07:51:29.327Z,54.15
2018-12-16T07:53:57.472Z,58.45
2018-12-16T07:56:25.580Z,55.60
2018-12-16T07:58:53.883Z,59.95
2018-12-16T08:01:22.051Z,54.75
2018-12-16T08:03:50.099Z,60.10
2018-12-16T08:06:18.383Z,62.43
2018-12-16T08:08:46.579Z,62.55
2018-12-16T08:11:14.604Z,59.23
2018-12-16T08:13:42.649Z,58.08
2018-12-16T08:16:10.663Z,58.40
2018-12-16T08:18:39.011Z,61.90
2018-12-16T08:21:07.216Z,60.75
2018-12-16T08:23:35.506Z,60.30
2018-12-16T08:26:03.860Z,61.37
2018-12-16T08:28:31.914Z,58.05
2018-12-16T08:30:59.964Z,60.67
2018-12-16T08:33:28.031Z,62.80
2018-12-16T08:35:56.072Z,60.17
2018-12-16T08:38:24.105Z,61.13
2018-12-16T08:40:52.156Z,70.00
2018-12-16T08:43:20.234Z,70.30
2018-12-16T08:45:48.290Z,62.53
2018-12-16T08:48:16.350Z,63.23
2018-12-16T08:50:44.380Z,63.28
2018-12-16T08:53:12.434Z,63.63
2018-12-16T08:55:40.492Z,65.10
2018-12-16T08:58:08.547Z,69.62
2018-12-16T09:00:36.570Z,66.25
2018-12-16T09:03:06.646Z,65.15
2018-12-16T09:05:34.728Z,59.05
2018-12-16T09:08:02.778Z,66.97
2018-12-16T09:10:34.090Z,64.15
2018-12-16T09:13:00.902Z,62.67
2018-12-16T09:15:28.931Z,71.53
2018-12-16T09:17:57.064Z,68.90
2018-12-16T09:20:25.114Z,68.87
2018-12-16T09:22:53.187Z,65.67
2018-12-16T09:25:21.276Z,73.47
2018-12-16T09:27:49.338Z,76.57
2018-12-16T09:30:17.416Z,85.70
2018-12-16T09:32:45.450Z,78.65
2018-12-16T09:35:13.542Z,101.70
2018-12-16T09:37:41.590Z,92.95
2018-12-16T09:40:09.662Z,79.30
2018-12-16T09:42:37.753Z,86.15
2018-12-16T09:45:05.985Z,72.85
2018-12-16T09:47:34.344Z,90.35
2018-12-16T09:50:02.499Z,137.97
2018-12-16T09:52:30.552Z,123.42
2018-12-16T09:54:58.573Z,129.93
2018-12-16T09:57:26.631Z,102.85
2018-12-16T09:59:54.653Z,83.58
2018-12-16T10:02:22.678Z,77.00
2018-12-16T10:04:50.761Z,120.60
2018-12-16T10:07:18.834Z,101.30
2018-12-16T10:09:46.882Z,116.50
2018-12-16T10:12:14.927Z,120.63
2018-12-16T10:14:42.997Z,143.80
2018-12-16T10:17:11.050Z,177.80
2018-12-16T10:19:39.103Z,106.95
2018-12-16T10:22:07.117Z,119.05
2018-12-16T10:24:35.173Z,113.47
2018-12-16T10:27:03.213Z,130.27
2018-12-16T10:29:31.267Z,157.67
2018-12-16T10:31:59.348Z,147.40
2018-12-16T10:34:27.381Z,203.18
2018-12-16T10:36:55.737Z,102.37
2018-12-16T10:39:23.770Z,85.30
2018-12-16T10:41:51.872Z,90.97
2018-12-16T10:44:19.922Z,102.62
2018-12-16T10:46:48.093Z,109.03
2018-12-16T10:49:16.278Z,104.57
2018-12-16T10:51:44.325Z,76.00
2018-12-16T10:54:12.362Z,78.30
2018-12-16T10:56:40.460Z,102.50
2018-12-16T10:59:08.493Z,77.53
2018-12-16T11:01:36.520Z,71.07
2018-12-16T11:04:04.555Z,77.10
2018-12-16T11:06:32.627Z,71.73
2018-12-16T11:09:00.868Z,70.60
2018-12-16T11:11:28.948Z,61.80
2018-12-16T11:13:56.979Z,89.37
2018-12-16T11:16:25.085Z,75.77
2018-12-16T11:18:53.127Z,86.57
2018-12-16T11:21:21.276Z,66.70
2018-12-16T11:23:53.751Z,105.50
2018-12-16T11:26:19.403Z,72.70
2018-12-16T11:28:47.459Z,76.23
2018-12-16T11:31:15.555Z,126.37
2018-12-16T11:33:43.851Z,84.00
2018-12-16T11:36:11.924Z,109.00
2018-12-16T11:38:40.051Z,105.43
2018-12-16T11:41:08.071Z,64.90
2018-12-16T11:43:36.207Z,119.73
2018-12-16T11:46:04.244Z,114.83
2018-12-16T11:48:32.284Z,86.37
2018-12-16T11:51:00.337Z,110.43
2018-12-16T11:53:28.389Z,114.17
2018-12-16T11:55:56.685Z,92.00
2018-12-16T11:58:24.734Z,109.73
2018-12-16T12:00:52.782Z,143.17
2018-12-16T12:03:20.786Z,125.03
2018-12-16T12:05:48.875Z,167.53
2018-12-16T12:08:17.000Z,102.77
2018-12-16T12:10:45.027Z,97.40
2018-12-16T12:13:13.095Z,88.87
2018-12-16T12:15:41.154Z,133.47
2018-12-16T12:18:09.207Z,104.00
2018-12-16T12:20:37.254Z,73.00
2018-12-16T12:25:40.247Z,120.07
2018-12-16T12:28:08.530Z,142.33
2018-12-16T12:30:36.596Z,125.53
2018-12-16T12:33:04.679Z,108.87
2018-12-16T12:35:32.724Z,123.87
2018-12-16T12:38:00.773Z,108.80
2018-12-16T12:40:28.858Z,111.27
2018-12-16T12:42:56.954Z,108.63
2018-12-16T12:45:25.576Z,230.35
2018-12-16T12:47:53.666Z,132.90
2018-12-16T12:50:21.738Z,233.47
2018-12-16T12:52:49.804Z,98.90
2018-12-16T12:55:17.929Z,235.80
2018-12-16T12:57:45.990Z,195.83
2018-12-16T13:00:14.583Z,355.43
2018-12-16T13:02:42.734Z,322.90
2018-12-16T13:05:10.916Z,136.57
2018-12-16T13:07:38.954Z,196.27
2018-12-16T13:10:07.850Z,240.13
2018-12-16T13:12:35.904Z,162.97
2018-12-16T13:15:04.468Z,140.37
2018-12-16T13:17:32.757Z,196.50
2018-12-16T13:20:00.923Z,153.43
2018-12-16T13:22:29.057Z,191.17
2018-12-16T13:25:02.902Z,96.17
2018-12-16T13:27:30.980Z,295.77
2018-12-16T13:29:59.047Z,106.13
2018-12-16T13:32:27.152Z,132.47
2018-12-16T13:34:55.259Z,390.27
2018-12-16T13:37:23.714Z,161.03
2018-12-16T13:39:51.805Z,74.30
2018-12-16T13:42:19.835Z,104.40
2018-12-16T13:44:47.945Z,180.67
2018-12-16T13:47:16.031Z,222.70
2018-12-16T13:49:44.171Z,80.83
2018-12-16T13:52:12.260Z,155.40
2018-12-16T13:54:40.609Z,139.20
2018-12-16T13:57:08.989Z,202.63
2018-12-16T13:59:37.093Z,117.20
2018-12-16T14:02:05.318Z,328.87
2018-12-16T14:04:33.386Z,139.53
2018-12-16T14:07:02.048Z,115.93
2018-12-16T14:09:30.151Z,98.30
2018-12-16T14:11:59.208Z,78.90
2018-12-16T14:14:27.354Z,300.23
2018-12-16T14:16:55.424Z,66.77
2018-12-16T14:19:23.598Z,59.00
2018-12-16T14:21:51.755Z,95.60
2018-12-16T14:24:19.891Z,77.97
2018-12-16T14:26:48.667Z,60.27
2018-12-16T14:29:16.732Z,50.67
2018-12-16T14:31:44.909Z,113.10
2018-12-16T14:34:13.098Z,70.57
2018-12-16T14:36:41.165Z,201.17
2018-12-16T14:39:09.568Z,194.13
2018-12-16T14:41:38.505Z,180.53
2018-12-16T14:44:06.571Z,70.30
2018-12-16T14:46:34.979Z,108.70
2018-12-16T14:49:03.233Z,60.57
2018-12-16T14:51:31.305Z,79.10
2018-12-16T14:53:59.383Z,100.27
2018-12-16T14:56:27.550Z,172.63
2018-12-16T14:58:55.617Z,122.93
2018-12-16T15:01:23.697Z,171.20
2018-12-16T15:03:51.783Z,48.63
2018-12-16T15:06:19.867Z,75.53
2018-12-16T15:08:48.856Z,112.33
2018-12-16T15:11:17.884Z,87.57
2018-12-16T15:13:45.982Z,104.37
2018-12-16T15:16:14.080Z,94.47
2018-12-16T15:18:42.310Z,69.83
2018-12-16T15:21:10.476Z,203.33
2018-12-16T15:23:38.640Z,61.93
2018-12-16T15:26:06.852Z,143.93
2018-12-16T15:28:35.090Z,193.23
2018-12-16T15:31:03.204Z,235.90
2018-12-16T15:33:31.295Z,225.20
2018-12-16T15:35:59.394Z,162.03
2018-12-16T15:38:28.046Z,105.77
2018-12-16T15:40:56.184Z,135.97
2018-12-16T15:43:24.284Z,143.80
2018-12-16T15:45:52.391Z,312.93
2018-12-16T15:48:20.490Z,297.03
2018-12-16T15:50:48.596Z,290.60
2018-12-16T15:53:16.713Z,173.90
2018-12-16T15:55:44.778Z,140.63
2018-12-16T15:58:12.915Z,258.60
2018-12-16T16:00:41.053Z,214.90
2018-12-16T16:03:09.139Z,273.33
2018-12-16T16:05:37.262Z,89.37
2018-12-16T16:08:05.367Z,195.70
2018-12-16T16:10:33.533Z,117.60
2018-12-16T16:13:01.691Z,184.53
2018-12-16T16:15:30.044Z,164.67
2018-12-16T16:17:58.200Z,106.23
2018-12-16T16:20:26.278Z,229.40
2018-12-16T16:22:54.386Z,220.40
2018-12-16T16:25:22.981Z,464.17
2018-12-16T16:27:51.172Z,626.83
2018-12-16T16:30:19.289Z,205.20
2018-12-16T16:32:48.353Z,474.03
2018-12-16T16:35:16.467Z,224.10
2018-12-16T16:37:44.813Z,196.17
2018-12-16T16:40:12.970Z,537.37
2018-12-16T16:42:41.064Z,411.47
2018-12-16T16:45:09.873Z,640.83
2018-12-16T16:47:37.994Z,290.87
2018-12-16T16:50:06.925Z,356.20
2018-12-16T16:52:35.352Z,62.97
2018-12-16T16:55:03.588Z,199.97
2018-12-16T16:57:31.710Z,131.63
2018-12-16T16:59:59.832Z,109.53
2018-12-16T17:02:29.013Z,144.10
2018-12-16T17:04:57.133Z,111.27
2018-12-16T17:07:25.248Z,80.33
2018-12-16T17:09:54.311Z,226.33
2018-12-16T17:12:22.444Z,185.07
2018-12-16T17:14:50.893Z,134.60
2018-12-16T17:17:19.001Z,69.10
2018-12-16T17:19:48.677Z,232.43
2018-12-16T17:22:16.937Z,145.30
2018-12-16T17:24:45.055Z,145.47
2018-12-16T17:27:14.799Z,96.63
2018-12-16T17:29:43.910Z,114.63
2018-12-16T17:32:12.862Z,79.30
2018-12-16T17:34:41.015Z,193.57
2018-12-16T17:37:09.139Z,200.70
2018-12-16T17:39:37.276Z,132.00
2018-12-16T17:42:06.166Z,400.33
2018-12-16T17:44:34.347Z,340.10
2018-12-16T17:47:02.499Z,315.17
2018-12-16T17:49:30.673Z,293.30
2018-12-16T17:51:58.801Z,338.27
2018-12-16T17:54:29.053Z,69.50
2018-12-16T17:56:57.189Z,83.47
2018-12-16T17:59:25.317Z,226.30
2018-12-16T18:01:53.775Z,254.70
2018-12-16T18:04:21.885Z,428.90
2018-12-16T18:06:50.023Z,236.37
2018-12-16T18:09:18.224Z,168.97
2018-12-16T18:11:48.305Z,164.23
2018-12-16T18:14:16.445Z,340.53
2018-12-16T18:16:44.617Z,221.80
2018-12-16T18:19:13.732Z,50.73
2018-12-16T18:21:41.870Z,124.13
2018-12-16T18:24:10.625Z,96.63
2018-12-16T18:26:44.090Z,185.50
2018-12-16T18:29:09.493Z,273.70
2018-12-16T18:31:38.041Z,107.23
2018-12-16T18:34:06.779Z,94.60
2018-12-16T18:36:34.923Z,145.10
2018-12-16T18:39:04.957Z,135.20
2018-12-16T18:41:33.182Z,104.40
2018-12-16T18:44:01.899Z,183.33
2018-12-16T18:46:30.537Z,161.60
2018-12-16T18:48:58.677Z,238.43
2018-12-16T18:51:26.821Z,162.77
2018-12-16T18:53:55.989Z,61.73
2018-12-16T18:56:24.207Z,249.83
2018-12-16T18:58:53.897Z,136.27
2018-12-16T19:01:22.085Z,100.60
2018-12-16T19:03:51.615Z,110.30
2018-12-16T19:06:19.771Z,114.43
2018-12-16T19:08:48.413Z,166.43
2018-12-16T19:11:16.582Z,112.87
2018-12-16T19:13:45.199Z,174.47
2018-12-16T19:16:13.415Z,96.53
2018-12-16T19:18:41.777Z,236.10
2018-12-16T19:21:10.113Z,214.93
2018-12-16T19:23:38.278Z,194.57
2018-12-16T19:26:06.445Z,145.90
2018-12-16T19:28:35.611Z,122.13
2018-12-16T19:31:04.506Z,165.47
2018-12-16T19:33:33.641Z,373.13
2018-12-16T19:36:02.161Z,76.07
2018-12-16T19:38:30.411Z,392.73
2018-12-16T19:40:58.571Z,197.27
2018-12-16T19:43:27.350Z,124.53
2018-12-16T19:45:55.870Z,72.37
2018-12-16T19:48:24.865Z,40.67
2018-12-16T19:50:53.737Z,57.17
2018-12-16T19:53:21.855Z,192.47
2018-12-16T19:55:50.877Z,50.03
2018-12-16T19:58:19.031Z,169.03
2018-12-16T20:00:47.829Z,178.43
2018-12-16T20:03:18.933Z,93.90
2018-12-16T20:05:53.365Z,218.57
2018-12-16T20:08:21.672Z,60.80
2018-12-16T20:10:50.164Z,97.40
2018-12-16T20:13:18.553Z,52.80
2018-12-16T20:15:47.965Z,125.30
2018-12-16T20:18:16.109Z,153.73
2018-12-16T20:20:44.361Z,183.57
2018-12-16T20:23:13.401Z,131.63
2018-12-16T20:25:42.457Z,165.33
2018-12-16T20:28:12.213Z,198.83
2018-12-16T20:30:40.372Z,96.33
2018-12-16T20:33:10.623Z,55.43
2018-12-16T20:35:38.820Z,44.30
2018-12-16T20:38:07.197Z,70.67
2018-12-16T20:40:35.661Z,50.50
2018-12-16T20:43:03.955Z,50.93
2018-12-16T20:45:32.078Z,53.53
2018-12-16T20:48:00.226Z,33.07
2018-12-16T20:50:28.685Z,49.40
2018-12-16T20:52:57.510Z,34.27
2018-12-16T20:55:25.640Z,43.43
2018-12-16T20:57:53.765Z,32.47
2018-12-16T21:00:21.979Z,39.67
2018-12-16T21:02:50.889Z,29.07
2018-12-16T21:05:19.920Z,33.47
2018-12-16T21:07:48.870Z,30.73
2018-12-16T21:10:17.091Z,31.70
2018-12-16T21:12:50.615Z,32.43
2018-12-16T21:15:24.093Z,31.80
2018-12-16T21:17:58.701Z,39.67
2018-12-16T21:20:27.840Z,35.10
2018-12-16T21:22:56.231Z,37.70
2018-12-16T21:25:24.675Z,33.53
2018-12-16T21:27:53.882Z,31.33
2018-12-16T21:30:22.136Z,40.77
2018-12-16T21:32:50.256Z,32.93
2018-12-16T21:35:19.029Z,29.27
2018-12-16T21:37:47.152Z,38.10
2018-12-16T21:40:16.140Z,36.63
2018-12-16T21:42:44.281Z,46.10
2018-12-16T21:45:12.410Z,35.07
2018-12-16T21:47:40.543Z,31.27
2018-12-16T21:50:08.751Z,64.23
2018-12-16T21:52:36.894Z,35.50
2018-12-16T21:55:05.284Z,37.47
2018-12-16T21:57:34.481Z,37.93
2018-12-16T22:00:02.638Z,39.40
2018-12-16T22:02:30.749Z,40.13
2018-12-16T22:04:58.964Z,40.03
2018-12-16T22:07:27.069Z,49.00
2018-12-16T22:09:55.273Z,47.73
2018-12-16T22:12:24.278Z,38.87
2018-12-16T22:14:52.347Z,49.73
2018-12-16T22:17:20.460Z,67.00
2018-12-16T22:19:48.601Z,46.73
2018-12-16T22:22:16.730Z,66.87
2018-12-16T22:24:44.756Z,75.70
2018-12-16T22:27:12.836Z,69.47
2018-12-16T22:29:40.934Z,67.80
2018-12-16T22:32:09.885Z,54.20
2018-12-16T22:34:37.944Z,50.60
2018-12-16T22:37:05.996Z,39.43
2018-12-16T22:39:34.061Z,57.00
2018-12-16T22:42:02.105Z,59.87
2018-12-16T22:44:30.134Z,51.33
2018-12-16T22:46:58.194Z,39.63
2018-12-16T22:49:26.235Z,30.20
2018-12-16T22:51:54.276Z,26.53
2018-12-16T22:54:22.303Z,26.60
2018-12-16T22:56:50.618Z,23.97
2018-12-16T22:59:18.669Z,22.77
2018-12-16T23:01:46.826Z,22.67
2018-12-16T23:04:14.852Z,18.90
2018-12-16T23:06:42.878Z,22.33
2018-12-16T23:09:10.932Z,18.17
2018-12-16T23:11:38.954Z,24.03
2018-12-16T23:14:07.012Z,18.50
2018-12-16T23:16:35.068Z,18.23
2018-12-16T23:19:03.106Z,18.13
2018-12-16T23:21:31.124Z,14.87
2018-12-16T23:23:59.165Z,18.63
2018-12-16T23:26:27.384Z,22.70
2018-12-16T23:28:55.432Z,18.43
2018-12-16T23:31:23.458Z,14.27
2018-12-16T23:33:51.497Z,21.03
2018-12-16T23:36:19.550Z,16.57
2018-12-16T23:38:47.588Z,15.53
2018-12-16T23:41:15.729Z,23.77
2018-12-16T23:43:43.769Z,18.60
2018-12-16T23:46:11.801Z,14.77
2018-12-16T23:48:39.838Z,23.70
2018-12-16T23:51:07.867Z,41.90
2018-12-16T23:53:35.878Z,47.87
2018-12-16T23:56:04.349Z,45.73
2018-12-16T23:58:32.384Z,33.57
